sensor_id;sensor_type;location;lat;lon;timestamp;temperature;humidity
7204;DHT22;3643;52.460;13.322;2023-04-12T00:00:50;3.60;99.90
7204;DHT22;3643;52.460;13.322;2023-04-12T00:03:18;3.50;99.90
7204;DHT22;3643;52.460;13.322;2023-04-12T00:05:48;3.50;99.90
7204;DHT22;3643;52.460;13.322;2023-04-12T00:08:21;3.50;99.90
7204;DHT22;3643;52.460;13.322;2023-04-12T00:10:52;3.40;99.90
7204;DHT22;3643;52.460;13.322;2023-04-12T00:13:21;3.40;99.90
7204;DHT22;3643;52.460;13.322;2023-04-12T00:15:50;3.40;99.90
7204;DHT22;3643;52.460;13.322;2023-04-12T00:18:19;3.30;99.90
7204;DHT22;3643;52.460;13.322;2023-04-12T00:20:52;3.30;99.90
7204;DHT22;3643;52.460;13.322;2023-04-12T00:23:20;3.20;99.90
7204;DHT22;3643;52.460;13.322;2023-04-12T00:25:49;3.20;99.90
7204;DHT22;3643;52.460;13.322;2023-04-12T00:28:18;3.20;99.90
7204;DHT22;3643;52.460;13.322;2023-04-12T00:30:46;3.20;99.90
7204;DHT22;3643;52.460;13.322;2023-04-12T00:33:16;3.20;99.90
7204;DHT22;3643;52.460;13.322;2023-04-12T00:35:45;3.20;99.90
7204;DHT22;3643;52.460;13.322;2023-04-12T00:38:13;3.60;99.90
7204;DHT22;3643;52.460;13.322;2023-04-12T00:40:44;3.20;99.90
7204;DHT22;3643;52.460;13.322;2023-04-12T00:43:12;3.10;99.90
7204;DHT22;3643;52.460;13.322;2023-04-12T00:45:45;3.20;99.90
7204;DHT22;3643;52.460;13.322;2023-04-12T00:48:15;3.10;99.90
7204;DHT22;3643;52.460;13.322;2023-04-12T00:50:45;3.10;99.90
7204;DHT22;3643;52.460;13.322;2023-04-12T00:53:13;3.10;99.90
7204;DHT22;3643;52.460;13.322;2023-04-12T00:55:44;3.10;99.90
7204;DHT22;3643;52.460;13.322;2023-04-12T00:58:14;3.10;99.90
7204;DHT22;3643;52.460;13.322;2023-04-12T01:00:43;3.00;99.90
7204;DHT22;3643;52.460;13.322;2023-04-12T01:03:21;3.00;99.90
7204;DHT22;3643;52.460;13.322;2023-04-12T01:05:59;3.00;99.90
7204;DHT22;3643;52.460;13.322;2023-04-12T01:08:41;3.00;99.90
7204;DHT22;3643;52.460;13.322;2023-04-12T01:11:19;3.00;99.90
7204;DHT22;3643;52.460;13.322;2023-04-12T01:13:57;2.90;99.90
7204;DHT22;3643;52.460;13.322;2023-04-12T01:16:30;2.90;99.90
7204;DHT22;3643;52.460;13.322;2023-04-12T01:19:08;2.90;99.90
7204;DHT22;3643;52.460;13.322;2023-04-12T01:21:50;3.10;99.90
7204;DHT22;3643;52.460;13.322;2023-04-12T01:24:27;2.80;99.90
7204;DHT22;3643;52.460;13.322;2023-04-12T01:27:02;2.80;99.90
7204;DHT22;3643;52.460;13.322;2023-04-12T01:29:34;2.70;99.90
7204;DHT22;3643;52.460;13.322;2023-04-12T01:32:03;2.70;99.90
7204;DHT22;3643;52.460;13.322;2023-04-12T01:34:32;2.70;99.90
7204;DHT22;3643;52.460;13.322;2023-04-12T01:37:03;2.70;99.90
7204;DHT22;3643;52.460;13.322;2023-04-12T01:39:32;2.70;99.90
7204;DHT22;3643;52.460;13.322;2023-04-12T01:42:00;2.60;99.90
7204;DHT22;3643;52.460;13.322;2023-04-12T01:44:29;2.60;99.90
7204;DHT22;3643;52.460;13.322;2023-04-12T01:46:59;2.60;99.90
7204;DHT22;3643;52.460;13.322;2023-04-12T01:49:34;2.60;99.90
7204;DHT22;3643;52.460;13.322;2023-04-12T01:52:08;2.50;99.90
7204;DHT22;3643;52.460;13.322;2023-04-12T01:54:40;2.50;99.90
7204;DHT22;3643;52.460;13.322;2023-04-12T01:57:10;2.50;99.90
7204;DHT22;3643;52.460;13.322;2023-04-12T01:59:40;2.50;99.90
7204;DHT22;3643;52.460;13.322;2023-04-12T02:02:12;2.60;99.90
7204;DHT22;3643;52.460;13.322;2023-04-12T02:04:41;2.50;99.90
7204;DHT22;3643;52.460;13.322;2023-04-12T02:07:09;2.80;99.90
7204;DHT22;3643;52.460;13.322;2023-04-12T02:09:38;2.70;99.90
7204;DHT22;3643;52.460;13.322;2023-04-12T02:12:09;2.70;99.90
7204;DHT22;3643;52.460;13.322;2023-04-12T02:14:37;2.60;99.90
7204;DHT22;3643;52.460;13.322;2023-04-12T02:17:05;2.60;99.90
7204;DHT22;3643;52.460;13.322;2023-04-12T02:19:35;2.80;99.90
7204;DHT22;3643;52.460;13.322;2023-04-12T02:22:04;2.80;99.90
7204;DHT22;3643;52.460;13.322;2023-04-12T02:24:34;2.70;99.90
7204;DHT22;3643;52.460;13.322;2023-04-12T02:27:02;2.70;99.90
7204;DHT22;3643;52.460;13.322;2023-04-12T02:29:31;2.60;99.90
7204;DHT22;3643;52.460;13.322;2023-04-12T02:32:00;2.60;99.90
7204;DHT22;3643;52.460;13.322;2023-04-12T02:34:28;2.60;99.90
7204;DHT22;3643;52.460;13.322;2023-04-12T02:37:01;2.60;99.90
7204;DHT22;3643;52.460;13.322;2023-04-12T02:39:30;2.50;99.90
7204;DHT22;3643;52.460;13.322;2023-04-12T02:42:00;2.50;99.90
7204;DHT22;3643;52.460;13.322;2023-04-12T02:44:28;2.50;99.90
7204;DHT22;3643;52.460;13.322;2023-04-12T02:46:57;2.50;99.90
7204;DHT22;3643;52.460;13.322;2023-04-12T02:49:25;2.60;99.90
7204;DHT22;3643;52.460;13.322;2023-04-12T02:51:54;2.70;99.90
7204;DHT22;3643;52.460;13.322;2023-04-12T02:54:25;2.70;99.90
7204;DHT22;3643;52.460;13.322;2023-04-12T02:56:54;2.80;99.90
7204;DHT22;3643;52.460;13.322;2023-04-12T02:59:22;2.70;99.90
7204;DHT22;3643;52.460;13.322;2023-04-12T03:01:51;2.70;99.90
7204;DHT22;3643;52.460;13.322;2023-04-12T03:04:20;2.70;99.90
7204;DHT22;3643;52.460;13.322;2023-04-12T03:06:57;2.70;99.90
7204;DHT22;3643;52.460;13.322;2023-04-12T03:09:26;2.70;99.90
7204;DHT22;3643;52.460;13.322;2023-04-12T03:11:55;2.70;99.90
7204;DHT22;3643;52.460;13.322;2023-04-12T03:14:23;2.70;99.90
7204;DHT22;3643;52.460;13.322;2023-04-12T03:16:51;2.70;99.90
7204;DHT22;3643;52.460;13.322;2023-04-12T03:19:20;2.50;99.90
7204;DHT22;3643;52.460;13.322;2023-04-12T03:21:48;2.60;99.90
7204;DHT22;3643;52.460;13.322;2023-04-12T03:24:17;2.60;99.90
7204;DHT22;3643;52.460;13.322;2023-04-12T03:26:46;2.30;99.90
7204;DHT22;3643;52.460;13.322;2023-04-12T03:29:16;2.50;99.90
7204;DHT22;3643;52.460;13.322;2023-04-12T03:31:44;2.50;99.90
7204;DHT22;3643;52.460;13.322;2023-04-12T03:34:13;2.50;99.90
7204;DHT22;3643;52.460;13.322;2023-04-12T03:36:42;2.50;99.90
7204;DHT22;3643;52.460;13.322;2023-04-12T03:39:10;2.40;99.90
7204;DHT22;3643;52.460;13.322;2023-04-12T03:41:38;2.40;99.90
7204;DHT22;3643;52.460;13.322;2023-04-12T03:44:08;2.40;99.90
7204;DHT22;3643;52.460;13.322;2023-04-12T03:46:37;2.30;99.90
7204;DHT22;3643;52.460;13.322;2023-04-12T03:49:05;2.30;99.90
7204;DHT22;3643;52.460;13.322;2023-04-12T03:51:34;2.30;99.90
7204;DHT22;3643;52.460;13.322;2023-04-12T03:54:02;2.30;99.90
7204;DHT22;3643;52.460;13.322;2023-04-12T03:56:30;2.30;99.90
7204;DHT22;3643;52.460;13.322;2023-04-12T03:58:59;2.20;99.90
7204;DHT22;3643;52.460;13.322;2023-04-12T04:01:29;2.20;99.90
7204;DHT22;3643;52.460;13.322;2023-04-12T04:03:57;2.20;99.90
7204;DHT22;3643;52.460;13.322;2023-04-12T04:06:26;2.40;99.90
7204;DHT22;3643;52.460;13.322;2023-04-12T04:08:55;2.20;99.90
7204;DHT22;3643;52.460;13.322;2023-04-12T04:11:24;2.30;99.90
7204;DHT22;3643;52.460;13.322;2023-04-12T04:13:52;2.30;99.90
7204;DHT22;3643;52.460;13.322;2023-04-12T04:16:20;2.40;99.90
7204;DHT22;3643;52.460;13.322;2023-04-12T04:18:50;2.70;99.90
7204;DHT22;3643;52.460;13.322;2023-04-12T04:21:18;2.40;99.90
7204;DHT22;3643;52.460;13.322;2023-04-12T04:23:48;2.40;99.90
7204;DHT22;3643;52.460;13.322;2023-04-12T04:26:17;2.40;99.90
7204;DHT22;3643;52.460;13.322;2023-04-12T04:28:46;2.50;99.90
7204;DHT22;3643;52.460;13.322;2023-04-12T04:31:16;3.20;99.90
7204;DHT22;3643;52.460;13.322;2023-04-12T04:33:44;2.50;99.90
7204;DHT22;3643;52.460;13.322;2023-04-12T04:36:14;2.50;99.90
7204;DHT22;3643;52.460;13.322;2023-04-12T04:38:42;2.50;99.90
7204;DHT22;3643;52.460;13.322;2023-04-12T04:41:11;2.40;99.90
7204;DHT22;3643;52.460;13.322;2023-04-12T04:43:39;2.40;99.90
7204;DHT22;3643;52.460;13.322;2023-04-12T04:46:08;2.50;99.90
7204;DHT22;3643;52.460;13.322;2023-04-12T04:48:36;2.50;99.90
7204;DHT22;3643;52.460;13.322;2023-04-12T04:51:05;2.50;99.90
7204;DHT22;3643;52.460;13.322;2023-04-12T04:53:34;2.50;99.90
7204;DHT22;3643;52.460;13.322;2023-04-12T04:56:03;2.20;99.90
7204;DHT22;3643;52.460;13.322;2023-04-12T04:58:31;2.50;99.90
7204;DHT22;3643;52.460;13.322;2023-04-12T05:00:59;2.60;99.90
7204;DHT22;3643;52.460;13.322;2023-04-12T05:03:27;2.60;99.90
7204;DHT22;3643;52.460;13.322;2023-04-12T05:05:57;2.60;99.90
7204;DHT22;3643;52.460;13.322;2023-04-12T05:08:25;2.70;99.90
7204;DHT22;3643;52.460;13.322;2023-04-12T05:10:56;2.70;99.90
7204;DHT22;3643;52.460;13.322;2023-04-12T05:13:24;2.70;99.90
7204;DHT22;3643;52.460;13.322;2023-04-12T05:15:52;2.70;99.90
7204;DHT22;3643;52.460;13.322;2023-04-12T05:18:20;2.70;99.90
7204;DHT22;3643;52.460;13.322;2023-04-12T05:20:48;2.70;99.90
7204;DHT22;3643;52.460;13.322;2023-04-12T05:23:16;2.70;99.90
7204;DHT22;3643;52.460;13.322;2023-04-12T05:25:45;2.70;99.90
7204;DHT22;3643;52.460;13.322;2023-04-12T05:28:15;2.80;99.90
7204;DHT22;3643;52.460;13.322;2023-04-12T05:30:43;2.90;99.90
7204;DHT22;3643;52.460;13.322;2023-04-12T05:33:12;3.00;99.90
7204;DHT22;3643;52.460;13.322;2023-04-12T05:35:40;3.10;99.90
7204;DHT22;3643;52.460;13.322;2023-04-12T05:38:08;3.10;99.90
7204;DHT22;3643;52.460;13.322;2023-04-12T05:40:36;3.20;99.90
7204;DHT22;3643;52.460;13.322;2023-04-12T05:43:04;3.30;99.90
7204;DHT22;3643;52.460;13.322;2023-04-12T05:45:34;3.40;99.90
7204;DHT22;3643;52.460;13.322;2023-04-12T05:48:02;3.60;99.90
7204;DHT22;3643;52.460;13.322;2023-04-12T05:50:30;4.10;99.90
7204;DHT22;3643;52.460;13.322;2023-04-12T05:52:59;5.40;99.90
7204;DHT22;3643;52.460;13.322;2023-04-12T05:55:28;6.90;99.90
7204;DHT22;3643;52.460;13.322;2023-04-12T05:57:56;9.00;99.90
7204;DHT22;3643;52.460;13.322;2023-04-12T06:00:25;10.00;99.90
7204;DHT22;3643;52.460;13.322;2023-04-12T06:02:55;10.80;99.90
7204;DHT22;3643;52.460;13.322;2023-04-12T06:05:24;11.50;99.90
7204;DHT22;3643;52.460;13.322;2023-04-12T06:07:52;12.70;99.90
7204;DHT22;3643;52.460;13.322;2023-04-12T06:10:21;12.50;99.90
7204;DHT22;3643;52.460;13.322;2023-04-12T06:12:49;13.40;99.90
7204;DHT22;3643;52.460;13.322;2023-04-12T06:15:17;12.90;99.90
7204;DHT22;3643;52.460;13.322;2023-04-12T06:17:46;14.10;99.90
7204;DHT22;3643;52.460;13.322;2023-04-12T06:20:18;14.40;99.90
7204;DHT22;3643;52.460;13.322;2023-04-12T06:22:46;14.50;99.30
7204;DHT22;3643;52.460;13.322;2023-04-12T06:25:14;13.40;99.90
7204;DHT22;3643;52.460;13.322;2023-04-12T06:27:43;13.50;99.90
7204;DHT22;3643;52.460;13.322;2023-04-12T06:30:11;14.10;99.80
7204;DHT22;3643;52.460;13.322;2023-04-12T06:32:40;15.00;99.90
7204;DHT22;3643;52.460;13.322;2023-04-12T06:35:08;17.00;96.70
7204;DHT22;3643;52.460;13.322;2023-04-12T06:37:38;17.20;95.80
7204;DHT22;3643;52.460;13.322;2023-04-12T06:40:07;16.40;96.00
7204;DHT22;3643;52.460;13.322;2023-04-12T06:42:35;16.20;96.00
7204;DHT22;3643;52.460;13.322;2023-04-12T06:45:04;15.80;96.80
7204;DHT22;3643;52.460;13.322;2023-04-12T06:47:33;15.30;96.40
7204;DHT22;3643;52.460;13.322;2023-04-12T06:50:01;14.60;97.30
7204;DHT22;3643;52.460;13.322;2023-04-12T06:52:29;15.70;96.50
7204;DHT22;3643;52.460;13.322;2023-04-12T06:54:59;15.70;96.20
7204;DHT22;3643;52.460;13.322;2023-04-12T06:57:27;17.50;96.70
7204;DHT22;3643;52.460;13.322;2023-04-12T06:59:55;18.20;94.30
7204;DHT22;3643;52.460;13.322;2023-04-12T07:02:23;18.30;93.60
7204;DHT22;3643;52.460;13.322;2023-04-12T07:04:51;16.90;93.60
7204;DHT22;3643;52.460;13.322;2023-04-12T07:07:20;15.20;95.10
7204;DHT22;3643;52.460;13.322;2023-04-12T07:09:48;16.10;95.50
7204;DHT22;3643;52.460;13.322;2023-04-12T07:12:19;16.90;93.80
7204;DHT22;3643;52.460;13.322;2023-04-12T07:14:47;16.70;95.00
7204;DHT22;3643;52.460;13.322;2023-04-12T07:17:15;15.90;94.10
7204;DHT22;3643;52.460;13.322;2023-04-12T07:19:44;15.60;95.10
7204;DHT22;3643;52.460;13.322;2023-04-12T07:22:12;17.00;95.00
7204;DHT22;3643;52.460;13.322;2023-04-12T07:24:40;18.30;93.90
7204;DHT22;3643;52.460;13.322;2023-04-12T07:27:08;17.90;92.90
7204;DHT22;3643;52.460;13.322;2023-04-12T07:29:38;17.80;93.40
7204;DHT22;3643;52.460;13.322;2023-04-12T07:32:06;17.60;92.70
7204;DHT22;3643;52.460;13.322;2023-04-12T07:34:35;19.20;93.80
7204;DHT22;3643;52.460;13.322;2023-04-12T07:37:03;21.70;93.50
7204;DHT22;3643;52.460;13.322;2023-04-12T07:39:32;21.30;90.60
7204;DHT22;3643;52.460;13.322;2023-04-12T07:42:00;20.50;88.90
7204;DHT22;3643;52.460;13.322;2023-04-12T07:44:29;19.40;91.40
7204;DHT22;3643;52.460;13.322;2023-04-12T07:46:59;19.60;90.20
7204;DHT22;3643;52.460;13.322;2023-04-12T07:49:27;18.00;91.10
7204;DHT22;3643;52.460;13.322;2023-04-12T07:51:55;17.40;90.70
7204;DHT22;3643;52.460;13.322;2023-04-12T07:54:26;17.20;91.30
7204;DHT22;3643;52.460;13.322;2023-04-12T07:56:58;17.40;90.70
7204;DHT22;3643;52.460;13.322;2023-04-12T07:59:26;17.30;91.70
7204;DHT22;3643;52.460;13.322;2023-04-12T08:01:55;19.40;91.50
7204;DHT22;3643;52.460;13.322;2023-04-12T08:04:25;19.00;90.10
7204;DHT22;3643;52.460;13.322;2023-04-12T08:06:54;17.60;90.70
7204;DHT22;3643;52.460;13.322;2023-04-12T08:09:22;18.40;90.60
7204;DHT22;3643;52.460;13.322;2023-04-12T08:11:51;18.30;90.10
7204;DHT22;3643;52.460;13.322;2023-04-12T08:14:19;16.20;91.30
7204;DHT22;3643;52.460;13.322;2023-04-12T08:16:48;15.80;91.80
7204;DHT22;3643;52.460;13.322;2023-04-12T08:19:18;14.90;93.00
7204;DHT22;3643;52.460;13.322;2023-04-12T08:21:48;13.60;93.60
7204;DHT22;3643;52.460;13.322;2023-04-12T08:24:16;13.20;94.30
7204;DHT22;3643;52.460;13.322;2023-04-12T08:26:45;13.20;94.50
7204;DHT22;3643;52.460;13.322;2023-04-12T08:29:13;13.20;95.30
7204;DHT22;3643;52.460;13.322;2023-04-12T08:31:42;13.40;95.00
7204;DHT22;3643;52.460;13.322;2023-04-12T08:34:10;13.30;95.30
7204;DHT22;3643;52.460;13.322;2023-04-12T08:36:38;13.10;94.80
7204;DHT22;3643;52.460;13.322;2023-04-12T08:39:08;12.80;95.50
7204;DHT22;3643;52.460;13.322;2023-04-12T08:41:38;12.60;95.60
7204;DHT22;3643;52.460;13.322;2023-04-12T08:44:06;12.40;96.40
7204;DHT22;3643;52.460;13.322;2023-04-12T08:46:35;12.20;95.70
7204;DHT22;3643;52.460;13.322;2023-04-12T08:49:03;12.10;95.50
7204;DHT22;3643;52.460;13.322;2023-04-12T08:51:33;12.10;95.40
7204;DHT22;3643;52.460;13.322;2023-04-12T08:54:04;12.00;95.00
7204;DHT22;3643;52.460;13.322;2023-04-12T08:56:34;12.00;95.40
7204;DHT22;3643;52.460;13.322;2023-04-12T08:59:03;12.00;95.00
7204;DHT22;3643;52.460;13.322;2023-04-12T09:01:32;12.00;95.10
7204;DHT22;3643;52.460;13.322;2023-04-12T09:04:05;12.00;95.10
7204;DHT22;3643;52.460;13.322;2023-04-12T09:06:34;12.10;95.70
7204;DHT22;3643;52.460;13.322;2023-04-12T09:09:02;12.00;95.50
7204;DHT22;3643;52.460;13.322;2023-04-12T09:11:35;12.00;95.30
7204;DHT22;3643;52.460;13.322;2023-04-12T09:14:14;12.20;95.90
7204;DHT22;3643;52.460;13.322;2023-04-12T09:16:47;12.30;95.30
7204;DHT22;3643;52.460;13.322;2023-04-12T09:19:15;12.30;95.20
7204;DHT22;3643;52.460;13.322;2023-04-12T09:21:51;12.30;95.10
7204;DHT22;3643;52.460;13.322;2023-04-12T09:24:20;12.40;95.20
7204;DHT22;3643;52.460;13.322;2023-04-12T09:27:00;12.80;94.70
7204;DHT22;3643;52.460;13.322;2023-04-12T09:29:30;12.40;95.10
7204;DHT22;3643;52.460;13.322;2023-04-12T09:32:01;12.30;93.90
7204;DHT22;3643;52.460;13.322;2023-04-12T09:34:29;12.40;93.90
7204;DHT22;3643;52.460;13.322;2023-04-12T09:36:58;12.40;93.90
7204;DHT22;3643;52.460;13.322;2023-04-12T09:39:30;12.30;93.70
7204;DHT22;3643;52.460;13.322;2023-04-12T09:42:08;12.30;93.00
7204;DHT22;3643;52.460;13.322;2023-04-12T09:44:57;12.50;92.70
7204;DHT22;3643;52.460;13.322;2023-04-12T09:47:36;12.70;92.40
7204;DHT22;3643;52.460;13.322;2023-04-12T09:50:07;12.70;90.80
7204;DHT22;3643;52.460;13.322;2023-04-12T09:52:36;12.70;91.10
7204;DHT22;3643;52.460;13.322;2023-04-12T09:55:07;12.80;91.40
7204;DHT22;3643;52.460;13.322;2023-04-12T09:57:40;12.80;90.90
7204;DHT22;3643;52.460;13.322;2023-04-12T10:00:10;12.90;91.20
7204;DHT22;3643;52.460;13.322;2023-04-12T10:02:45;12.90;90.90
7204;DHT22;3643;52.460;13.322;2023-04-12T10:05:17;13.00;91.30
7204;DHT22;3643;52.460;13.322;2023-04-12T10:07:47;13.00;91.40
7204;DHT22;3643;52.460;13.322;2023-04-12T10:10:18;13.00;90.80
7204;DHT22;3643;52.460;13.322;2023-04-12T10:12:48;13.00;90.90
7204;DHT22;3643;52.460;13.322;2023-04-12T10:15:17;13.00;90.60
7204;DHT22;3643;52.460;13.322;2023-04-12T10:17:48;13.00;90.40
7204;DHT22;3643;52.460;13.322;2023-04-12T10:20:18;13.10;90.60
7204;DHT22;3643;52.460;13.322;2023-04-12T10:22:48;13.20;90.90
7204;DHT22;3643;52.460;13.322;2023-04-12T10:25:19;13.30;91.10
7204;DHT22;3643;52.460;13.322;2023-04-12T10:27:49;13.40;91.10
7204;DHT22;3643;52.460;13.322;2023-04-12T10:30:22;13.60;91.50
7204;DHT22;3643;52.460;13.322;2023-04-12T10:33:15;13.60;90.50
7204;DHT22;3643;52.460;13.322;2023-04-12T10:35:51;13.70;90.60
7204;DHT22;3643;52.460;13.322;2023-04-12T10:38:20;13.70;90.80
7204;DHT22;3643;52.460;13.322;2023-04-12T10:41:11;13.80;91.00
7204;DHT22;3643;52.460;13.322;2023-04-12T10:43:41;13.70;90.60
7204;DHT22;3643;52.460;13.322;2023-04-12T10:46:47;13.70;90.60
7204;DHT22;3643;52.460;13.322;2023-04-12T10:49:16;14.70;91.20
7204;DHT22;3643;52.460;13.322;2023-04-12T10:52:11;13.60;90.40
7204;DHT22;3643;52.460;13.322;2023-04-12T10:54:40;13.60;90.40
7204;DHT22;3643;52.460;13.322;2023-04-12T10:57:42;13.60;90.70
7204;DHT22;3643;52.460;13.322;2023-04-12T11:00:14;13.80;90.90
7204;DHT22;3643;52.460;13.322;2023-04-12T11:03:09;13.90;90.90
7204;DHT22;3643;52.460;13.322;2023-04-12T11:05:58;14.10;90.80
7204;DHT22;3643;52.460;13.322;2023-04-12T11:08:38;14.10;90.50
7204;DHT22;3643;52.460;13.322;2023-04-12T11:11:18;14.10;90.30
7204;DHT22;3643;52.460;13.322;2023-04-12T11:13:53;14.20;90.90
7204;DHT22;3643;52.460;13.322;2023-04-12T11:16:23;14.30;90.80
7204;DHT22;3643;52.460;13.322;2023-04-12T11:18:52;14.40;90.40
7204;DHT22;3643;52.460;13.322;2023-04-12T11:21:21;14.40;90.50
7204;DHT22;3643;52.460;13.322;2023-04-12T11:23:51;14.40;90.10
7204;DHT22;3643;52.460;13.322;2023-04-12T11:26:21;14.40;90.20
7204;DHT22;3643;52.460;13.322;2023-04-12T11:28:50;14.50;90.30
7204;DHT22;3643;52.460;13.322;2023-04-12T11:31:19;14.50;90.00
7204;DHT22;3643;52.460;13.322;2023-04-12T11:33:50;14.60;90.20
7204;DHT22;3643;52.460;13.322;2023-04-12T11:36:18;14.50;89.70
7204;DHT22;3643;52.460;13.322;2023-04-12T11:38:46;14.60;90.60
7204;DHT22;3643;52.460;13.322;2023-04-12T11:41:16;14.60;89.60
7204;DHT22;3643;52.460;13.322;2023-04-12T11:43:44;14.80;90.30
7204;DHT22;3643;52.460;13.322;2023-04-12T11:46:13;15.00;90.20
7204;DHT22;3643;52.460;13.322;2023-04-12T11:48:44;15.10;88.60
7204;DHT22;3643;52.460;13.322;2023-04-12T11:51:20;15.00;87.30
7204;DHT22;3643;52.460;13.322;2023-04-12T11:53:54;14.90;88.00
7204;DHT22;3643;52.460;13.322;2023-04-12T11:56:23;15.00;88.60
7204;DHT22;3643;52.460;13.322;2023-04-12T11:58:52;15.10;87.90
7204;DHT22;3643;52.460;13.322;2023-04-12T12:01:21;15.20;87.50
7204;DHT22;3643;52.460;13.322;2023-04-12T12:03:50;15.10;88.20
7204;DHT22;3643;52.460;13.322;2023-04-12T12:06:20;15.30;87.80
7204;DHT22;3643;52.460;13.322;2023-04-12T12:08:53;15.30;87.70
7204;DHT22;3643;52.460;13.322;2023-04-12T12:11:23;15.20;87.50
7204;DHT22;3643;52.460;13.322;2023-04-12T12:13:53;15.00;87.50
7204;DHT22;3643;52.460;13.322;2023-04-12T12:16:26;15.10;87.90
7204;DHT22;3643;52.460;13.322;2023-04-12T12:18:55;15.10;86.90
7204;DHT22;3643;52.460;13.322;2023-04-12T12:21:25;15.30;87.00
7204;DHT22;3643;52.460;13.322;2023-04-12T12:23:55;15.60;87.70
7204;DHT22;3643;52.460;13.322;2023-04-12T12:26:26;15.90;87.80
7204;DHT22;3643;52.460;13.322;2023-04-12T12:28:56;15.90;87.90
7204;DHT22;3643;52.460;13.322;2023-04-12T12:31:26;16.30;87.00
7204;DHT22;3643;52.460;13.322;2023-04-12T12:33:56;16.20;85.90
7204;DHT22;3643;52.460;13.322;2023-04-12T12:36:32;16.50;87.50
7204;DHT22;3643;52.460;13.322;2023-04-12T12:39:03;16.70;86.50
7204;DHT22;3643;52.460;13.322;2023-04-12T12:41:33;16.70;84.90
7204;DHT22;3643;52.460;13.322;2023-04-12T12:44:01;16.40;85.40
7204;DHT22;3643;52.460;13.322;2023-04-12T12:46:30;16.50;84.80
7204;DHT22;3643;52.460;13.322;2023-04-12T12:49:18;16.60;85.20
7204;DHT22;3643;52.460;13.322;2023-04-12T12:51:47;16.80;86.30
7204;DHT22;3643;52.460;13.322;2023-04-12T12:54:17;16.70;85.50
7204;DHT22;3643;52.460;13.322;2023-04-12T12:57:04;16.40;85.00
7204;DHT22;3643;52.460;13.322;2023-04-12T12:59:33;16.00;86.60
7204;DHT22;3643;52.460;13.322;2023-04-12T13:02:01;16.00;86.10
7204;DHT22;3643;52.460;13.322;2023-04-12T13:04:29;15.90;87.40
7204;DHT22;3643;52.460;13.322;2023-04-12T13:06:59;16.20;86.20
7204;DHT22;3643;52.460;13.322;2023-04-12T13:09:28;16.30;86.10
7204;DHT22;3643;52.460;13.322;2023-04-12T13:11:56;16.30;85.90
7204;DHT22;3643;52.460;13.322;2023-04-12T13:14:24;16.10;85.80
7204;DHT22;3643;52.460;13.322;2023-04-12T13:16:53;16.40;87.30
7204;DHT22;3643;52.460;13.322;2023-04-12T13:19:21;16.40;85.50
7204;DHT22;3643;52.460;13.322;2023-04-12T13:21:49;16.40;84.80
7204;DHT22;3643;52.460;13.322;2023-04-12T13:24:20;16.10;86.20
7204;DHT22;3643;52.460;13.322;2023-04-12T13:26:48;16.30;85.80
7204;DHT22;3643;52.460;13.322;2023-04-12T13:29:17;16.00;86.10
7204;DHT22;3643;52.460;13.322;2023-04-12T13:31:45;16.00;87.30
7204;DHT22;3643;52.460;13.322;2023-04-12T13:34:13;16.30;88.10
7204;DHT22;3643;52.460;13.322;2023-04-12T13:36:42;16.30;86.00
7204;DHT22;3643;52.460;13.322;2023-04-12T13:39:10;16.40;87.40
7204;DHT22;3643;52.460;13.322;2023-04-12T13:41:39;16.60;86.50
7204;DHT22;3643;52.460;13.322;2023-04-12T13:44:08;16.60;87.60
7204;DHT22;3643;52.460;13.322;2023-04-12T13:46:36;16.40;86.40
7204;DHT22;3643;52.460;13.322;2023-04-12T13:49:04;16.20;86.80
7204;DHT22;3643;52.460;13.322;2023-04-12T13:51:32;16.20;86.50
7204;DHT22;3643;52.460;13.322;2023-04-12T13:54:01;16.10;86.40
7204;DHT22;3643;52.460;13.322;2023-04-12T13:56:29;15.90;87.60
7204;DHT22;3643;52.460;13.322;2023-04-12T13:58:59;15.80;87.50
7204;DHT22;3643;52.460;13.322;2023-04-12T14:01:28;15.70;87.60
7204;DHT22;3643;52.460;13.322;2023-04-12T14:03:56;15.70;87.60
7204;DHT22;3643;52.460;13.322;2023-04-12T14:06:24;15.50;87.60
7204;DHT22;3643;52.460;13.322;2023-04-12T14:08:53;15.40;87.20
7204;DHT22;3643;52.460;13.322;2023-04-12T14:11:22;15.10;87.10
7204;DHT22;3643;52.460;13.322;2023-04-12T14:13:50;14.80;87.70
7204;DHT22;3643;52.460;13.322;2023-04-12T14:16:20;14.80;87.80
7204;DHT22;3643;52.460;13.322;2023-04-12T14:18:48;14.70;87.90
7204;DHT22;3643;52.460;13.322;2023-04-12T14:21:16;14.70;88.40
7204;DHT22;3643;52.460;13.322;2023-04-12T14:23:45;14.60;88.30
7204;DHT22;3643;52.460;13.322;2023-04-12T14:26:13;14.60;88.60
7204;DHT22;3643;52.460;13.322;2023-04-12T14:28:42;14.60;88.90
7204;DHT22;3643;52.460;13.322;2023-04-12T14:31:11;14.50;89.60
7204;DHT22;3643;52.460;13.322;2023-04-12T14:33:42;14.50;90.20
7204;DHT22;3643;52.460;13.322;2023-04-12T14:36:11;14.30;90.50
7204;DHT22;3643;52.460;13.322;2023-04-12T14:38:39;14.20;90.80
7204;DHT22;3643;52.460;13.322;2023-04-12T14:41:09;14.00;90.70
7204;DHT22;3643;52.460;13.322;2023-04-12T14:43:38;14.10;91.00
7204;DHT22;3643;52.460;13.322;2023-04-12T14:46:06;14.10;90.90
7204;DHT22;3643;52.460;13.322;2023-04-12T14:48:35;14.10;91.30
7204;DHT22;3643;52.460;13.322;2023-04-12T14:51:05;14.00;91.80
7204;DHT22;3643;52.460;13.322;2023-04-12T14:53:33;13.90;91.90
7204;DHT22;3643;52.460;13.322;2023-04-12T14:56:02;13.90;91.90
7204;DHT22;3643;52.460;13.322;2023-04-12T14:58:32;13.80;91.90
7204;DHT22;3643;52.460;13.322;2023-04-12T15:01:01;13.80;92.30
7204;DHT22;3643;52.460;13.322;2023-04-12T15:03:30;13.80;92.70
7204;DHT22;3643;52.460;13.322;2023-04-12T15:06:00;13.70;93.30
7204;DHT22;3643;52.460;13.322;2023-04-12T15:08:32;13.70;93.90
7204;DHT22;3643;52.460;13.322;2023-04-12T15:11:08;13.50;94.50
7204;DHT22;3643;52.460;13.322;2023-04-12T15:13:37;13.40;95.80
7204;DHT22;3643;52.460;13.322;2023-04-12T15:16:08;13.10;96.90
7204;DHT22;3643;52.460;13.322;2023-04-12T15:18:36;12.80;98.20
7204;DHT22;3643;52.460;13.322;2023-04-12T15:21:06;12.50;99.10
7204;DHT22;3643;52.460;13.322;2023-04-12T15:23:37;12.30;99.90
7204;DHT22;3643;52.460;13.322;2023-04-12T15:26:06;12.10;99.90
7204;DHT22;3643;52.460;13.322;2023-04-12T15:28:35;11.90;99.90
7204;DHT22;3643;52.460;13.322;2023-04-12T15:31:04;11.80;99.90
7204;DHT22;3643;52.460;13.322;2023-04-12T15:33:34;11.60;99.90
7204;DHT22;3643;52.460;13.322;2023-04-12T15:36:04;11.50;99.90
7204;DHT22;3643;52.460;13.322;2023-04-12T15:38:40;11.30;99.90
7204;DHT22;3643;52.460;13.322;2023-04-12T15:41:10;10.50;99.90
7204;DHT22;3643;52.460;13.322;2023-04-12T15:43:38;11.20;99.90
7204;DHT22;3643;52.460;13.322;2023-04-12T15:46:08;11.10;99.90
7204;DHT22;3643;52.460;13.322;2023-04-12T15:48:36;11.10;99.90
7204;DHT22;3643;52.460;13.322;2023-04-12T15:51:05;11.10;99.90
7204;DHT22;3643;52.460;13.322;2023-04-12T15:53:34;11.10;99.90
7204;DHT22;3643;52.460;13.322;2023-04-12T15:56:05;11.10;99.90
7204;DHT22;3643;52.460;13.322;2023-04-12T15:58:35;11.20;99.90
7204;DHT22;3643;52.460;13.322;2023-04-12T16:01:06;11.10;99.90
7204;DHT22;3643;52.460;13.322;2023-04-12T16:03:34;11.00;99.90
7204;DHT22;3643;52.460;13.322;2023-04-12T16:06:04;11.00;99.90
7204;DHT22;3643;52.460;13.322;2023-04-12T16:08:33;10.90;99.90
7204;DHT22;3643;52.460;13.322;2023-04-12T16:11:03;10.90;99.90